Terminal Aerodrome Forecast
Issued by NWS

Current Version | Previous Version | Text Only | Print | Product List | Glossary On
Versions: 1 2 3 4 5 6 7 8 9 10 11 12 13 14
000
FTUS44 KBMX 270400 AAA
TAFTCL
TAF AMD
KTCL 270446Z 2705/2724 33007KT P6SM SCT035
     FM270700 34007KT P6SM BKN035
     FM271000 35010KT P6SM OVC015
     FM271800 35008KT P6SM BKN025=

USA.gov is the U.S. government's official web portal to all federal, state and local government web resources and services.